createdAt,value
2023-02-01T00:01:00.327Z,2.79
2023-02-01T00:04:03.926Z,2.70
2023-02-01T00:07:07.733Z,2.81
2023-02-01T00:10:12.110Z,2.82
2023-02-01T00:13:15.365Z,2.80
2023-02-01T00:16:20.558Z,2.90
2023-02-01T00:19:23.793Z,2.84
2023-02-01T00:22:27.159Z,2.79
2023-02-01T00:25:30.559Z,2.89
2023-02-01T00:28:35.103Z,3.02
2023-02-01T00:31:38.589Z,3.04
2023-02-01T00:34:43.201Z,3.10
2023-02-01T00:37:46.430Z,3.05
2023-02-01T00:40:50.104Z,3.01
2023-02-01T00:43:53.797Z,2.97
2023-02-01T00:46:58.576Z,3.07
2023-02-01T00:50:03.170Z,2.98
2023-02-01T00:53:06.470Z,3.15
2023-02-01T00:56:11.025Z,3.11
2023-02-01T00:59:15.963Z,3.07
2023-02-01T01:02:19.347Z,3.10
2023-02-01T01:05:23.838Z,3.17
2023-02-01T01:08:27.119Z,3.16
2023-02-01T01:11:33.244Z,3.11
2023-02-01T01:14:36.481Z,3.11
2023-02-01T01:17:40.709Z,3.11
2023-02-01T01:20:43.743Z,3.11
2023-02-01T01:23:48.311Z,3.05
2023-02-01T01:26:51.784Z,3.03
2023-02-01T01:29:55.317Z,3.13
2023-02-01T01:32:58.381Z,2.97
2023-02-01T01:36:02.504Z,3.10
2023-02-01T01:39:05.827Z,2.98
2023-02-01T01:42:13.555Z,2.96
2023-02-01T01:45:35.255Z,3.03
2023-02-01T01:48:38.679Z,3.09
2023-02-01T01:51:46.242Z,3.11
2023-02-01T01:54:51.988Z,3.06
2023-02-01T01:58:01.909Z,2.97
2023-02-01T02:01:05.679Z,3.05
2023-02-01T02:04:09.231Z,2.92
2023-02-01T02:07:15.926Z,2.97
2023-02-01T02:10:19.822Z,3.05
2023-02-01T02:13:23.794Z,3.06
2023-02-01T02:16:42.478Z,2.93
2023-02-01T02:19:50.411Z,2.79
2023-02-01T02:23:12.179Z,2.96
2023-02-01T02:26:28.580Z,2.89
2023-02-01T02:29:40.883Z,2.83
2023-02-01T02:33:02.785Z,2.76
2023-02-01T02:36:19.271Z,2.78
2023-02-01T02:39:26.013Z,2.71
2023-02-01T02:42:58.352Z,2.72
2023-02-01T02:46:36.595Z,2.64
2023-02-01T02:50:31.063Z,2.69
2023-02-01T02:54:24.046Z,2.66
2023-02-01T02:57:56.574Z,2.68
2023-02-01T03:01:21.583Z,2.67
2023-02-01T03:04:26.653Z,2.74
2023-02-01T03:07:45.514Z,2.72
2023-02-01T03:11:05.673Z,2.71
2023-02-01T03:14:09.665Z,2.68
2023-02-01T03:17:15.637Z,2.82
2023-02-01T03:20:23.569Z,2.64
2023-02-01T03:23:31.721Z,2.58
2023-02-01T03:26:39.834Z,2.58
2023-02-01T03:29:50.481Z,2.69
2023-02-01T03:33:00.247Z,2.66
2023-02-01T03:36:11.209Z,2.61
2023-02-01T03:39:17.710Z,2.50
2023-02-01T03:42:26.065Z,2.46
2023-02-01T03:45:35.240Z,2.32
2023-02-01T03:48:39.241Z,2.34
2023-02-01T03:51:42.692Z,2.40
2023-02-01T03:54:47.416Z,2.31
2023-02-01T03:57:58.578Z,2.34
2023-02-01T04:01:02.155Z,2.33
2023-02-01T04:04:06.258Z,2.24
2023-02-01T04:07:10.162Z,2.25
2023-02-01T04:10:14.348Z,2.16
2023-02-01T04:13:17.712Z,2.04
2023-02-01T04:16:21.282Z,1.96
2023-02-01T04:19:24.824Z,1.96
2023-02-01T04:22:30.740Z,2.18
2023-02-01T04:25:35.394Z,2.17
2023-02-01T04:28:38.853Z,2.37
2023-02-01T04:31:42.782Z,2.40
2023-02-01T04:34:46.147Z,2.47
2023-02-01T04:37:49.241Z,2.46
2023-02-01T04:40:52.981Z,2.57
2023-02-01T04:43:55.997Z,2.59
2023-02-01T04:46:59.749Z,2.64
2023-02-01T04:50:03.136Z,2.60
2023-02-01T04:53:06.593Z,2.61
2023-02-01T04:56:14.912Z,2.51
2023-02-01T04:59:18.608Z,2.54
2023-02-01T05:02:22.022Z,2.51
2023-02-01T05:05:26.070Z,2.53
2023-02-01T05:08:30.159Z,2.43
2023-02-01T05:11:52.007Z,2.46
2023-02-01T05:14:55.702Z,2.29
2023-02-01T05:18:00.002Z,2.21
2023-02-01T05:21:03.390Z,2.16
2023-02-01T05:24:22.301Z,2.09
2023-02-01T05:27:25.503Z,1.89
2023-02-01T05:30:30.594Z,1.82
2023-02-01T05:33:35.134Z,1.65
2023-02-01T05:36:39.135Z,1.66
2023-02-01T05:39:42.221Z,1.68
2023-02-01T05:42:45.816Z,1.43
2023-02-01T05:45:48.935Z,1.35
2023-02-01T05:48:52.496Z,1.31
2023-02-01T05:51:55.894Z,1.30
2023-02-01T05:54:59.389Z,1.26
2023-02-01T05:58:02.665Z,1.46
2023-02-01T06:01:09.422Z,1.55
2023-02-01T06:04:13.025Z,1.82
2023-02-01T06:07:16.260Z,1.86
2023-02-01T06:10:20.235Z,1.99
2023-02-01T06:13:23.578Z,2.07
2023-02-01T06:16:28.262Z,2.20
2023-02-01T06:19:32.682Z,2.21
2023-02-01T06:22:38.401Z,2.31
2023-02-01T06:25:41.376Z,2.42
2023-02-01T06:28:46.502Z,2.40
2023-02-01T06:31:49.586Z,2.34
2023-02-01T06:34:53.639Z,2.42
2023-02-01T06:37:59.172Z,2.30
2023-02-01T06:41:03.612Z,2.28
2023-02-01T06:44:06.861Z,2.33
2023-02-01T06:47:10.409Z,2.32
2023-02-01T06:50:13.522Z,2.20
2023-02-01T06:53:16.981Z,2.12
2023-02-01T06:56:20.983Z,2.18
2023-02-01T06:59:24.310Z,2.12
2023-02-01T07:02:27.244Z,2.16
2023-02-01T07:05:30.878Z,2.13
2023-02-01T07:08:36.196Z,2.36
2023-02-01T07:11:42.421Z,2.40
2023-02-01T07:14:45.884Z,2.63
2023-02-01T07:17:50.276Z,2.67
2023-02-01T07:20:54.908Z,2.87
2023-02-01T07:24:00.573Z,2.91
2023-02-01T07:27:03.797Z,2.87
2023-02-01T07:30:08.341Z,2.95
2023-02-01T07:33:12.783Z,3.05
2023-02-01T07:36:18.012Z,3.01
2023-02-01T07:39:21.214Z,3.07
2023-02-01T07:42:24.976Z,3.26
2023-02-01T07:45:28.198Z,3.28
2023-02-01T07:48:32.739Z,3.47
2023-02-01T07:51:35.969Z,3.33
2023-02-01T07:54:39.457Z,3.26
2023-02-01T07:57:43.171Z,3.35
2023-02-01T08:01:05.238Z,3.36
2023-02-01T08:04:13.708Z,3.36
2023-02-01T08:07:17.078Z,3.49
2023-02-01T08:10:21.641Z,3.53
2023-02-01T08:13:26.394Z,3.71
2023-02-01T08:16:29.782Z,3.83
2023-02-01T08:19:33.186Z,3.79
2023-02-01T08:22:36.661Z,3.76
2023-02-01T08:25:40.067Z,4.19
2023-02-01T08:28:45.918Z,4.25
2023-02-01T08:31:49.176Z,4.29
2023-02-01T08:34:52.738Z,4.47
2023-02-01T08:37:55.960Z,4.47
2023-02-01T08:41:05.624Z,4.28
2023-02-01T08:44:09.355Z,4.30
2023-02-01T08:47:12.866Z,4.28
2023-02-01T08:50:16.757Z,4.36
2023-02-01T08:53:20.246Z,4.17
2023-02-01T08:56:23.690Z,4.21
2023-02-01T08:59:29.521Z,4.13
2023-02-01T09:02:33.372Z,4.20
2023-02-01T09:05:48.712Z,4.18
2023-02-01T09:08:53.221Z,4.15
2023-02-01T09:11:56.624Z,4.03
2023-02-01T09:15:00.970Z,3.97
2023-02-01T09:18:05.234Z,4.00
2023-02-01T09:21:08.878Z,3.98
2023-02-01T09:24:12.933Z,3.84
2023-02-01T09:27:16.356Z,3.86
2023-02-01T09:30:21.016Z,3.91
2023-02-01T09:33:25.582Z,3.99
2023-02-01T09:36:31.137Z,3.96
2023-02-01T09:39:34.543Z,3.93
2023-02-01T09:42:45.682Z,4.02
2023-02-01T09:46:14.069Z,4.12
2023-02-01T09:49:22.400Z,3.99
2023-02-01T09:52:38.096Z,4.03
2023-02-01T09:55:44.482Z,3.99
2023-02-01T09:58:57.622Z,3.92
2023-02-01T10:02:01.202Z,4.07
2023-02-01T10:05:04.966Z,3.96
2023-02-01T10:08:29.695Z,4.08
2023-02-01T10:11:49.384Z,4.22
2023-02-01T10:15:11.825Z,4.42
2023-02-01T10:18:53.181Z,4.56
2023-02-01T10:21:59.104Z,4.20
2023-02-01T10:25:27.858Z,4.02
2023-02-01T10:28:36.167Z,4.22
2023-02-01T10:31:40.126Z,4.13
2023-02-01T10:34:47.477Z,3.90
2023-02-01T10:37:52.876Z,4.17
2023-02-01T10:40:59.718Z,4.12
2023-02-01T10:44:05.975Z,4.16
2023-02-01T10:47:10.684Z,4.21
2023-02-01T10:50:56.549Z,4.14
2023-02-01T10:54:16.027Z,4.09
2023-02-01T10:57:26.894Z,4.18
2023-02-01T11:00:47.204Z,4.25
2023-02-01T11:03:58.032Z,4.31
2023-02-01T11:07:08.718Z,4.42
2023-02-01T11:10:39.329Z,4.42
2023-02-01T11:13:43.582Z,4.45
2023-02-01T11:16:53.330Z,4.32
2023-02-01T11:20:00.599Z,4.18
2023-02-01T11:23:04.468Z,4.32
2023-02-01T11:26:16.947Z,4.09
2023-02-01T11:29:24.298Z,4.01
2023-02-01T11:32:29.236Z,3.89
2023-02-01T11:35:33.739Z,3.79
2023-02-01T11:38:36.806Z,3.80
2023-02-01T11:41:58.166Z,3.65
2023-02-01T11:45:22.351Z,3.70
2023-02-01T11:48:28.558Z,3.72
2023-02-01T11:51:43.867Z,3.81
2023-02-01T11:54:53.353Z,3.86
2023-02-01T11:58:11.358Z,3.83
2023-02-01T12:01:36.188Z,3.72
2023-02-01T12:05:01.888Z,3.74
2023-02-01T12:08:31.407Z,3.91
2023-02-01T12:12:01.991Z,3.86
2023-02-01T12:15:10.463Z,3.86
2023-02-01T12:18:41.265Z,3.92
2023-02-01T12:21:58.708Z,3.79
2023-02-01T12:25:33.408Z,3.88
2023-02-01T12:28:39.598Z,3.84
2023-02-01T12:32:03.204Z,3.85
2023-02-01T12:35:15.495Z,3.92
2023-02-01T12:38:25.105Z,3.94
2023-02-01T12:41:45.103Z,3.80
2023-02-01T12:44:57.649Z,3.89
2023-02-01T12:48:38.008Z,3.91
2023-02-01T12:51:44.073Z,4.04
2023-02-01T12:54:53.325Z,4.05
2023-02-01T12:58:03.510Z,4.18
2023-02-01T13:01:10.722Z,4.24
2023-02-01T13:04:35.452Z,4.31
2023-02-01T13:07:48.184Z,4.46
2023-02-01T13:11:06.301Z,4.48
2023-02-01T13:14:31.341Z,4.79
2023-02-01T13:17:35.959Z,5.04
2023-02-01T13:20:46.992Z,5.03
2023-02-01T13:23:51.917Z,5.14
2023-02-01T13:26:56.326Z,5.25
2023-02-01T13:30:21.088Z,5.16
2023-02-01T13:33:53.309Z,5.54
2023-02-01T13:37:11.102Z,6.75
2023-02-01T13:40:43.311Z,6.84
2023-02-01T13:43:50.270Z,6.10
2023-02-01T13:46:57.734Z,5.77
2023-02-01T13:50:13.771Z,5.69
2023-02-01T13:53:21.835Z,4.71
2023-02-01T13:56:26.047Z,3.37
2023-02-01T13:59:42.794Z,2.75
2023-02-01T14:03:13.067Z,3.06
2023-02-01T14:06:37.842Z,3.17
2023-02-01T14:09:40.975Z,3.32
2023-02-01T14:12:49.910Z,3.14
2023-02-01T14:16:05.421Z,3.13
2023-02-01T14:19:11.271Z,3.39
2023-02-01T14:22:27.041Z,3.09
2023-02-01T14:25:34.170Z,3.22
2023-02-01T14:28:42.118Z,3.42
2023-02-01T14:32:05.152Z,3.39
2023-02-01T14:35:26.950Z,3.39
2023-02-01T14:38:33.312Z,3.41
2023-02-01T14:41:36.787Z,3.17
2023-02-01T14:44:40.119Z,3.36
2023-02-01T14:48:08.822Z,3.45
2023-02-01T14:51:15.081Z,3.62
2023-02-01T14:54:20.065Z,3.65
2023-02-01T14:57:26.694Z,3.76
2023-02-01T15:00:32.288Z,3.83
2023-02-01T15:03:43.820Z,3.83
2023-02-01T15:07:00.300Z,3.83
2023-02-01T15:10:05.486Z,3.92
2023-02-01T15:13:20.938Z,3.87
2023-02-01T15:16:26.620Z,3.96
2023-02-01T15:19:31.780Z,4.03
2023-02-01T15:22:35.472Z,3.98
2023-02-01T15:25:40.930Z,4.03
2023-02-01T15:28:44.412Z,4.07
2023-02-01T15:31:51.524Z,4.12
2023-02-01T15:34:55.095Z,4.17
2023-02-01T15:38:24.885Z,4.21
2023-02-01T15:41:32.007Z,4.15
2023-02-01T15:44:41.571Z,4.18
2023-02-01T15:47:49.106Z,3.96
2023-02-01T15:50:53.968Z,4.06
2023-02-01T15:54:09.329Z,4.05
2023-02-01T15:57:12.584Z,3.98
2023-02-01T16:00:27.902Z,3.99
2023-02-01T16:04:07.009Z,4.00
2023-02-01T16:07:30.063Z,4.05
2023-02-01T16:10:40.742Z,4.01
2023-02-01T16:13:43.874Z,4.03
2023-02-01T16:16:47.902Z,4.07
2023-02-01T16:19:52.465Z,4.13
2023-02-01T16:22:56.212Z,4.07
2023-02-01T16:25:59.850Z,4.17
2023-02-01T16:29:07.577Z,4.07
2023-02-01T16:32:22.164Z,4.15
2023-02-01T16:35:37.801Z,4.11
2023-02-01T16:38:41.338Z,4.05
2023-02-01T16:41:46.813Z,4.08
2023-02-01T16:44:50.068Z,4.07
2023-02-01T16:47:56.689Z,4.07
2023-02-01T16:51:10.329Z,4.05
2023-02-01T16:54:14.015Z,4.04
2023-02-01T16:57:20.753Z,4.15
2023-02-01T17:00:26.673Z,4.05
2023-02-01T17:03:30.072Z,4.13
2023-02-01T17:06:37.982Z,4.15
2023-02-01T17:09:43.410Z,4.20
2023-02-01T17:12:47.324Z,4.09
2023-02-01T17:15:59.871Z,4.29
2023-02-01T17:19:11.562Z,4.28
2023-02-01T17:22:17.808Z,4.26
2023-02-01T17:25:24.055Z,4.19
2023-02-01T17:28:29.687Z,4.37
2023-02-01T17:31:34.184Z,4.34
2023-02-01T17:34:38.669Z,4.29
2023-02-01T17:37:45.492Z,4.30
2023-02-01T17:40:50.931Z,4.26
2023-02-01T17:43:58.982Z,4.19
2023-02-01T17:47:03.134Z,4.34
2023-02-01T17:50:08.298Z,4.34
2023-02-01T17:53:15.389Z,4.20
2023-02-01T17:56:28.881Z,4.26
2023-02-01T17:59:34.440Z,4.28
2023-02-01T18:02:42.625Z,4.17
2023-02-01T18:05:51.513Z,4.20
2023-02-01T18:08:55.719Z,4.18
2023-02-01T18:12:00.280Z,4.12
2023-02-01T18:15:18.421Z,4.14
2023-02-01T18:18:24.752Z,4.17
2023-02-01T18:21:34.366Z,4.08
2023-02-01T18:24:38.929Z,3.98
2023-02-01T18:27:44.777Z,4.00
2023-02-01T18:30:52.223Z,4.03
2023-02-01T18:33:58.477Z,4.02
2023-02-01T18:37:03.554Z,4.06
2023-02-01T18:40:10.543Z,3.94
2023-02-01T18:43:25.288Z,3.88
2023-02-01T18:46:36.129Z,3.93
2023-02-01T18:53:02.467Z,3.97
2023-02-01T18:56:07.765Z,3.98
2023-02-01T18:59:12.479Z,3.92
2023-02-01T19:02:16.886Z,3.95
2023-02-01T19:05:22.381Z,3.99
2023-02-01T19:08:29.277Z,3.96
2023-02-01T19:11:33.805Z,3.96
2023-02-01T19:14:38.589Z,3.93
2023-02-01T19:17:56.574Z,4.00
2023-02-01T19:21:09.561Z,3.93
2023-02-01T19:24:15.251Z,3.96
2023-02-01T19:27:20.783Z,4.00
2023-02-01T19:30:28.675Z,3.98
2023-02-01T19:33:35.283Z,3.99
2023-02-01T19:36:44.305Z,3.98
2023-02-01T19:39:49.624Z,3.99
2023-02-01T19:42:54.485Z,3.95
2023-02-01T19:46:03.612Z,4.03
2023-02-01T19:49:12.607Z,4.00
2023-02-01T19:52:18.185Z,4.00
2023-02-01T19:55:23.254Z,3.96
2023-02-01T19:58:31.052Z,3.97
2023-02-01T20:01:34.724Z,3.97
2023-02-01T20:04:39.857Z,3.99
2023-02-01T20:07:46.328Z,3.95
2023-02-01T20:10:55.246Z,4.03
2023-02-01T20:14:02.072Z,3.99
2023-02-01T20:17:11.454Z,3.94
2023-02-01T20:20:18.396Z,3.76
2023-02-01T20:23:26.582Z,3.76
2023-02-01T20:26:31.854Z,3.73
2023-02-01T20:29:38.287Z,3.58
2023-02-01T20:32:44.258Z,3.52
2023-02-01T20:35:55.004Z,3.47
2023-02-01T20:39:00.473Z,3.48
2023-02-01T20:42:05.851Z,3.36
2023-02-01T20:45:11.283Z,3.39
2023-02-01T20:48:16.753Z,3.45
2023-02-01T20:51:22.457Z,3.44
2023-02-01T20:54:27.478Z,3.28
2023-02-01T20:57:31.678Z,3.33
2023-02-01T21:00:36.068Z,3.33
2023-02-01T21:03:42.347Z,3.19
2023-02-01T21:06:47.324Z,3.27
2023-02-01T21:09:51.677Z,3.21
2023-02-01T21:13:04.787Z,3.16
2023-02-01T21:16:13.463Z,3.15
2023-02-01T21:19:18.136Z,3.29
2023-02-01T21:22:21.693Z,3.31
2023-02-01T21:25:26.103Z,3.28
2023-02-01T21:28:29.443Z,3.21
2023-02-01T21:31:33.019Z,3.22
2023-02-01T21:34:36.782Z,3.20
2023-02-01T21:37:41.210Z,3.15
2023-02-01T21:40:44.378Z,3.07
2023-02-01T21:43:49.143Z,3.06
2023-02-01T21:46:52.383Z,3.13
2023-02-01T21:49:56.725Z,3.14
2023-02-01T21:53:01.396Z,3.13
2023-02-01T21:56:05.111Z,3.12
2023-02-01T21:59:10.318Z,3.10
2023-02-01T22:02:16.243Z,3.11
2023-02-01T22:05:19.724Z,3.13
2023-02-01T22:08:22.898Z,3.06
2023-02-01T22:11:26.763Z,3.14
2023-02-01T22:14:30.162Z,3.17
2023-02-01T22:17:33.620Z,3.20
2023-02-01T22:20:37.169Z,3.20
2023-02-01T22:23:41.257Z,3.16
2023-02-01T22:26:44.458Z,3.21
2023-02-01T22:29:47.905Z,3.25
2023-02-01T22:32:51.074Z,3.24
2023-02-01T22:35:54.791Z,3.31
2023-02-01T22:38:59.603Z,3.41
2023-02-01T22:42:04.378Z,3.45
2023-02-01T22:45:07.885Z,3.48
2023-02-01T22:48:12.214Z,3.64
2023-02-01T22:51:18.681Z,3.57
2023-02-01T22:54:23.510Z,3.65
2023-02-01T22:57:27.764Z,3.67
2023-02-01T23:00:31.296Z,3.70
2023-02-01T23:03:36.144Z,3.73
2023-02-01T23:06:39.947Z,3.77
2023-02-01T23:09:43.116Z,3.84
2023-02-01T23:12:47.042Z,3.89
2023-02-01T23:15:50.259Z,3.87
2023-02-01T23:18:53.772Z,3.95
2023-02-01T23:21:56.964Z,4.06
2023-02-01T23:25:00.509Z,4.06
2023-02-01T23:28:03.734Z,4.11
2023-02-01T23:31:13.112Z,4.13
2023-02-01T23:34:16.258Z,4.14
2023-02-01T23:37:19.788Z,4.17
2023-02-01T23:40:23.180Z,4.13
2023-02-01T23:43:45.735Z,4.04
2023-02-01T23:46:48.781Z,3.93
2023-02-01T23:49:52.227Z,4.00
2023-02-01T23:52:56.631Z,3.76
2023-02-01T23:56:00.363Z,3.51
2023-02-01T23:59:05.996Z,3.42
